createdAt,value
2023-02-05T10:58:35.282Z,40.30
2023-02-05T10:59:36.392Z,54.00
2023-02-05T11:00:36.647Z,59.50
2023-02-05T11:01:36.416Z,60.50
2023-02-05T11:02:36.395Z,84.50
2023-02-05T11:03:36.305Z,81.80
2023-02-05T11:04:38.252Z,86.70
2023-02-05T11:05:36.314Z,85.30
2023-02-05T11:06:36.628Z,83.80
2023-02-05T11:07:36.288Z,83.70
2023-02-05T11:08:36.367Z,83.60
2023-02-05T11:09:37.215Z,80.70
2023-02-05T11:10:36.709Z,83.40
2023-02-05T11:11:38.342Z,83.20
2023-02-05T11:12:36.283Z,82.80
2023-02-05T11:13:36.303Z,84.90
2023-02-05T11:14:36.306Z,82.70
2023-02-05T11:15:36.232Z,80.20
2023-02-05T11:16:36.231Z,57.00
2023-02-05T11:17:36.377Z,78.00
2023-02-05T11:18:36.406Z,74.90
2023-02-05T11:19:37.721Z,61.90
2023-02-05T11:20:36.610Z,55.30
2023-02-05T11:21:38.318Z,45.70
2023-02-05T11:22:36.224Z,41.20
2023-02-05T11:23:36.305Z,44.40
2023-02-05T11:24:36.224Z,42.30
2023-02-05T11:25:36.218Z,43.30
2023-02-05T11:26:36.224Z,54.20
2023-02-05T11:27:36.215Z,58.90
2023-02-05T11:28:36.241Z,44.20
2023-02-05T11:29:36.222Z,43.80
2023-02-05T11:32:46.225Z,49.60
2023-02-05T11:33:47.206Z,47.50
2023-02-05T11:34:47.218Z,65.40
2023-02-05T11:35:47.161Z,71.30
2023-02-05T11:36:47.300Z,49.90
2023-02-05T11:37:47.148Z,60.00
2023-02-05T11:38:47.161Z,78.00
2023-02-05T11:39:47.139Z,68.70
2023-02-05T11:40:47.154Z,64.40
2023-02-05T11:41:47.159Z,52.40
2023-02-05T11:42:47.146Z,54.90
2023-02-05T11:43:47.105Z,45.90
2023-02-05T11:44:47.121Z,51.90
2023-02-05T11:45:47.888Z,55.00
2023-02-05T11:46:47.111Z,75.80
2023-02-05T11:47:47.088Z,50.70
2023-02-05T11:48:47.141Z,56.70
2023-02-05T11:49:47.066Z,44.90
2023-02-05T11:50:47.061Z,53.00
2023-02-05T11:51:49.518Z,58.40
2023-02-05T11:52:47.107Z,53.60
2023-02-05T11:53:47.103Z,52.30
2023-02-05T11:54:48.290Z,63.60
2023-02-05T11:55:47.074Z,62.60
2023-02-05T11:56:47.711Z,58.80
2023-02-05T11:57:48.187Z,45.70
2023-02-05T11:58:47.029Z,45.30
2023-02-05T11:59:47.012Z,51.50
2023-02-05T12:00:46.991Z,58.40
2023-02-05T12:01:47.222Z,52.50
2023-02-05T12:02:47.111Z,53.40
2023-02-05T12:03:47.051Z,45.40
2023-02-05T12:04:47.006Z,58.90
2023-02-05T12:05:46.970Z,39.60
2023-02-05T12:06:47.002Z,49.90
2023-02-05T12:07:46.975Z,39.10
2023-02-05T12:08:46.971Z,38.10
2023-02-05T12:09:46.974Z,44.10
2023-02-05T12:10:47.211Z,41.70
2023-02-05T12:11:47.178Z,53.20
2023-02-05T12:12:46.937Z,38.90
2023-02-05T12:13:47.319Z,39.00
2023-02-05T12:14:46.924Z,39.50
2023-02-05T12:15:46.996Z,38.40
2023-02-05T12:16:46.940Z,35.10
2023-02-05T12:17:46.908Z,38.30
2023-02-05T12:18:47.608Z,36.30
2023-02-05T12:19:46.950Z,42.60
2023-02-05T12:20:46.896Z,38.50
2023-02-05T12:21:46.868Z,39.20
2023-02-05T12:22:46.898Z,34.10
2023-02-05T12:23:46.849Z,44.40
2023-02-05T12:24:46.891Z,44.50
2023-02-05T12:25:46.904Z,41.80
2023-02-05T12:26:46.868Z,51.00
2023-02-05T12:27:46.875Z,55.70
2023-02-05T12:28:46.830Z,44.70
2023-02-05T12:29:46.958Z,52.10
2023-02-05T12:30:47.694Z,46.70
2023-02-05T12:31:46.837Z,49.90
2023-02-05T12:32:46.805Z,60.00
2023-02-05T12:33:46.835Z,61.50
2023-02-05T12:34:47.611Z,61.70
2023-02-05T12:35:46.771Z,66.70
2023-02-05T12:36:47.547Z,53.10
2023-02-05T12:37:47.022Z,56.20
2023-02-05T12:38:48.196Z,44.70
2023-02-05T12:39:46.742Z,55.90
2023-02-05T12:40:46.766Z,55.40
2023-02-05T12:41:46.804Z,50.10
2023-02-05T12:42:47.750Z,63.50
2023-02-05T12:43:46.735Z,54.70
2023-02-05T12:44:46.722Z,51.00
2023-02-05T12:45:47.699Z,45.40
2023-02-05T12:46:46.733Z,50.20
2023-02-05T12:47:46.855Z,58.10
2023-02-05T12:48:46.712Z,43.50
2023-02-05T12:49:46.688Z,40.00
2023-02-05T12:50:46.685Z,48.40
2023-02-05T12:51:46.686Z,52.00
2023-02-05T12:52:46.698Z,49.90
2023-02-05T12:53:46.666Z,49.50
2023-02-05T12:54:46.675Z,62.40
2023-02-05T12:55:46.853Z,67.10
2023-02-05T12:56:47.646Z,58.30
2023-02-05T12:57:46.655Z,58.30
2023-02-05T12:58:47.608Z,63.20
2023-02-05T12:59:46.666Z,47.20
2023-02-05T13:00:46.756Z,67.80
2023-02-05T13:01:46.623Z,54.80
2023-02-05T13:02:46.641Z,60.10
2023-02-05T13:03:46.684Z,45.40
2023-02-05T13:04:46.628Z,54.90
2023-02-05T13:05:46.589Z,45.60
2023-02-05T13:06:46.590Z,39.80
2023-02-05T13:07:46.649Z,42.10
2023-02-05T13:08:46.573Z,41.60
2023-02-05T13:09:46.592Z,56.10
2023-02-05T13:10:46.583Z,71.60
2023-02-05T13:11:46.575Z,59.80
2023-02-05T13:12:46.657Z,62.10
2023-02-05T13:13:46.665Z,44.80
2023-02-05T13:14:46.555Z,44.90
2023-02-05T13:15:46.606Z,39.40
2023-02-05T13:16:46.587Z,47.00
2023-02-05T13:17:46.531Z,51.10
2023-02-05T13:18:46.519Z,48.10
2023-02-05T13:19:46.556Z,53.10
2023-02-05T13:20:46.528Z,59.50
2023-02-05T13:21:46.594Z,69.10
2023-02-05T13:22:46.493Z,52.00
2023-02-05T13:23:46.485Z,50.70
2023-02-05T13:24:46.570Z,44.80
2023-02-05T13:25:46.488Z,56.40
2023-02-05T13:26:46.483Z,73.60
2023-02-05T13:27:47.567Z,58.40
2023-02-05T13:28:46.444Z,89.70
2023-02-05T13:29:49.536Z,48.70
2023-02-05T13:30:46.529Z,42.00
2023-02-05T13:31:46.464Z,51.00
2023-02-05T13:32:46.445Z,46.00
2023-02-05T13:33:46.422Z,45.70
2023-02-05T13:34:46.420Z,49.80
2023-02-05T13:35:47.946Z,50.10
2023-02-05T13:36:47.634Z,70.50
2023-02-05T13:37:46.414Z,61.20
2023-02-05T13:38:46.410Z,57.90
2023-02-05T13:39:46.402Z,56.70
2023-02-05T13:40:46.390Z,59.50
2023-02-05T13:41:46.369Z,53.50
2023-02-05T13:42:46.412Z,58.00
2023-02-05T13:43:46.375Z,48.40
2023-02-05T13:44:46.376Z,47.90
2023-02-05T13:45:46.389Z,52.10
2023-02-05T13:46:46.356Z,56.40
2023-02-05T13:47:46.348Z,37.90
2023-02-05T13:48:46.568Z,53.70
2023-02-05T13:49:48.118Z,62.70
2023-02-05T13:50:46.345Z,41.20
2023-02-05T13:51:46.313Z,53.20
2023-02-05T13:52:46.307Z,47.70
2023-02-05T13:53:46.426Z,45.00
2023-02-05T13:54:46.286Z,43.70
2023-02-05T13:55:46.305Z,45.30
2023-02-05T13:56:46.335Z,52.20
2023-02-05T13:57:46.292Z,45.90
2023-02-05T13:58:46.275Z,48.80
2023-02-05T13:59:46.252Z,52.90
2023-02-05T14:00:46.276Z,49.60
2023-02-05T14:01:46.436Z,46.80
2023-02-05T14:02:46.285Z,50.20
2023-02-05T14:03:46.711Z,43.80
2023-02-05T14:04:47.530Z,52.00
2023-02-05T14:05:46.270Z,58.30
2023-02-05T14:06:46.228Z,53.00
2023-02-05T14:07:46.200Z,52.90
2023-02-05T14:08:46.206Z,50.80
2023-02-05T14:09:46.190Z,49.40
2023-02-05T14:10:47.384Z,54.20
2023-02-05T14:11:46.310Z,54.90
2023-02-05T14:12:46.194Z,46.60
2023-02-05T14:13:46.218Z,46.10
2023-02-05T14:14:47.130Z,45.60
2023-02-05T14:15:46.225Z,43.80
2023-02-05T14:16:47.533Z,50.60
2023-02-05T14:17:46.137Z,45.80
2023-02-05T14:18:46.180Z,48.70
2023-02-05T14:19:46.147Z,57.60
2023-02-05T14:20:46.203Z,48.00
2023-02-05T14:21:46.151Z,41.50
2023-02-05T14:22:46.124Z,52.50
2023-02-05T14:23:46.144Z,35.70
2023-02-05T14:24:46.431Z,34.90
2023-02-05T14:25:46.132Z,41.40
2023-02-05T14:26:46.108Z,38.80
2023-02-05T14:27:46.089Z,53.50
2023-02-05T14:28:46.267Z,39.80
2023-02-05T14:29:46.682Z,42.60
2023-02-05T14:30:46.179Z,57.50
2023-02-05T14:31:46.082Z,58.90
2023-02-05T14:32:46.078Z,44.40
2023-02-05T14:33:46.061Z,53.60
2023-02-05T14:34:46.038Z,43.60
2023-02-05T14:35:46.202Z,45.20
2023-02-05T14:36:46.058Z,41.60
2023-02-05T14:37:46.025Z,40.70
2023-02-05T14:38:46.011Z,35.90
2023-02-05T14:39:46.038Z,45.70
2023-02-05T14:40:46.010Z,36.40
2023-02-05T14:41:46.013Z,50.50
2023-02-05T14:42:45.989Z,37.40
2023-02-05T14:43:45.989Z,38.30
2023-02-05T14:44:45.962Z,38.10
2023-02-05T14:45:45.975Z,43.30
2023-02-05T14:46:46.702Z,40.90
2023-02-05T14:47:48.121Z,44.60
2023-02-05T14:48:45.988Z,41.60
2023-02-05T14:49:45.943Z,43.00
2023-02-05T14:50:45.999Z,39.80
2023-02-05T14:51:45.944Z,37.50
2023-02-05T14:52:45.948Z,43.80
2023-02-05T14:53:45.955Z,39.20
2023-02-05T14:54:45.908Z,39.10
2023-02-05T14:55:45.929Z,45.80
2023-02-05T14:56:46.048Z,54.70
2023-02-05T14:57:45.907Z,53.00
2023-02-05T14:58:45.901Z,48.20
2023-02-05T14:59:46.079Z,39.80
2023-02-05T15:00:45.878Z,38.10
2023-02-05T15:01:45.914Z,38.40
2023-02-05T15:02:45.940Z,39.90
2023-02-05T15:03:45.829Z,36.90
2023-02-05T15:06:43.571Z,38.10
2023-02-05T15:07:44.690Z,40.70
2023-02-05T15:08:44.677Z,40.60
2023-02-05T15:09:44.677Z,42.40
2023-02-05T15:10:44.682Z,40.70
2023-02-05T15:11:44.727Z,40.50
2023-02-05T15:12:44.770Z,37.80
2023-02-05T15:13:44.682Z,40.90
2023-02-05T15:14:44.785Z,44.60
2023-02-05T15:15:44.663Z,56.40
2023-02-05T15:16:44.608Z,40.60
2023-02-05T15:17:45.120Z,40.60
2023-02-05T15:18:45.569Z,53.50
2023-02-05T15:19:44.603Z,55.80
2023-02-05T15:20:44.616Z,57.30
2023-02-05T15:21:44.670Z,42.20
2023-02-05T15:22:44.637Z,44.90
2023-02-05T15:23:44.575Z,59.30
2023-02-05T15:24:44.657Z,44.10
2023-02-05T15:25:44.760Z,39.10
2023-02-05T15:26:44.599Z,41.80
2023-02-05T15:27:44.754Z,50.90
2023-02-05T15:28:44.887Z,41.70
2023-02-05T15:29:44.531Z,42.60
2023-02-05T15:30:44.617Z,43.10
2023-02-05T15:31:44.566Z,47.30
2023-02-05T15:32:44.566Z,54.00
2023-02-05T15:33:44.531Z,49.80
2023-02-05T15:34:44.537Z,52.30
2023-02-05T15:35:44.587Z,46.80
2023-02-05T15:36:44.609Z,59.80
2023-02-05T15:37:44.510Z,48.70
2023-02-05T15:38:44.568Z,60.50
2023-02-05T15:39:44.616Z,44.40
2023-02-05T15:40:44.560Z,41.70
2023-02-05T15:41:44.468Z,44.80
2023-02-05T15:42:44.531Z,45.10
2023-02-05T15:43:44.472Z,45.40
2023-02-05T15:44:44.528Z,41.50
2023-02-05T15:45:44.452Z,43.60
2023-02-05T15:46:45.107Z,46.20
2023-02-05T15:47:44.477Z,47.20
2023-02-05T15:48:44.430Z,44.50
2023-02-05T15:49:46.638Z,40.60
2023-02-05T15:50:53.368Z,43.30
2023-02-05T15:51:49.949Z,44.10
2023-02-05T15:52:45.035Z,49.60
2023-02-05T15:53:44.538Z,47.70
2023-02-05T15:54:44.647Z,46.20
2023-02-05T15:55:45.347Z,44.90
2023-02-05T15:56:45.638Z,44.10
2023-02-05T15:57:44.377Z,52.30
2023-02-05T15:58:45.593Z,49.40
2023-02-05T15:59:44.365Z,46.50
2023-02-05T16:00:44.364Z,50.40
2023-02-05T16:01:45.694Z,47.60
2023-02-05T16:02:45.061Z,44.00
2023-02-05T16:03:44.358Z,49.90
2023-02-05T16:04:44.948Z,46.50
2023-02-05T16:05:44.624Z,40.90
2023-02-05T16:06:47.427Z,45.80
2023-02-05T16:07:44.313Z,43.50
2023-02-05T16:08:45.789Z,44.30
2023-02-05T16:09:44.386Z,44.60
2023-02-05T16:10:45.010Z,45.10
2023-02-05T16:11:44.587Z,47.80
2023-02-05T16:12:45.041Z,45.10
2023-02-05T16:13:44.273Z,38.90
2023-02-05T16:14:45.274Z,39.70
2023-02-05T16:15:44.386Z,39.40
2023-02-05T16:16:44.250Z,44.80
2023-02-05T16:17:44.259Z,49.00
2023-02-05T16:18:44.255Z,51.30
2023-02-05T16:19:44.233Z,46.80
2023-02-05T16:20:44.270Z,43.10
2023-02-05T16:21:44.236Z,47.50
2023-02-05T16:22:44.242Z,43.20
2023-02-05T16:23:44.239Z,41.30
2023-02-05T16:24:44.273Z,37.60
2023-02-05T16:25:44.248Z,33.90
2023-02-05T16:26:44.264Z,37.10
2023-02-05T16:27:44.315Z,43.30
2023-02-05T16:28:44.243Z,41.10
2023-02-05T16:29:47.982Z,44.90
2023-02-05T16:30:45.201Z,62.10
2023-02-05T16:31:44.204Z,52.30
2023-02-05T16:32:44.141Z,54.10
2023-02-05T16:33:44.142Z,46.50
2023-02-05T16:34:44.161Z,49.40
2023-02-05T16:35:44.122Z,50.40
2023-02-05T16:36:44.158Z,43.40
2023-02-05T16:37:44.133Z,47.50
2023-02-05T16:38:44.139Z,48.80
2023-02-05T16:39:44.133Z,51.70
2023-02-05T16:40:45.109Z,50.20
2023-02-05T16:41:50.432Z,56.50
2023-02-05T16:42:46.803Z,57.40
2023-02-05T16:43:46.583Z,56.40
2023-02-05T16:44:46.052Z,58.60
2023-02-05T16:45:44.243Z,54.10
2023-02-05T16:46:44.274Z,57.60
2023-02-05T16:47:44.372Z,57.60
2023-02-05T16:48:45.322Z,53.40
2023-02-05T16:49:44.338Z,51.50
2023-02-05T16:50:44.325Z,51.90
2023-02-05T16:51:45.125Z,57.70
2023-02-05T16:52:44.291Z,54.80
2023-02-05T16:53:45.321Z,50.90
2023-02-05T16:54:44.562Z,51.70
2023-02-05T16:55:44.668Z,50.20
2023-02-05T16:56:44.501Z,47.70
2023-02-05T16:57:44.264Z,48.40
2023-02-05T16:58:44.423Z,47.90
2023-02-05T16:59:45.845Z,49.20
2023-02-05T17:00:45.271Z,52.20
2023-02-05T17:01:44.328Z,57.50
2023-02-05T17:02:45.613Z,57.50
2023-02-05T17:03:45.368Z,51.70
2023-02-05T17:04:45.646Z,54.10
2023-02-05T17:05:44.542Z,52.00
2023-02-05T17:06:44.242Z,55.40
2023-02-05T17:07:48.052Z,82.40
2023-02-05T17:08:44.455Z,58.60
2023-02-05T17:09:44.385Z,69.00
2023-02-05T17:10:44.251Z,61.90
2023-02-05T17:11:44.649Z,59.30
2023-02-05T17:12:44.769Z,51.80
2023-02-05T17:13:44.527Z,53.60
2023-02-05T17:14:44.298Z,49.70
2023-02-05T17:15:44.150Z,64.00
2023-02-05T17:16:45.891Z,48.50
2023-02-05T17:17:44.164Z,49.40
2023-02-05T17:18:44.353Z,51.90
2023-02-05T17:19:44.121Z,52.20
2023-02-05T17:20:44.525Z,49.30
2023-02-05T17:21:44.269Z,54.40
2023-02-05T17:22:44.160Z,53.30
2023-02-05T17:23:44.070Z,49.80
2023-02-05T17:24:48.453Z,51.60
2023-02-05T17:25:44.408Z,57.70
2023-02-05T17:26:44.165Z,57.00
2023-02-05T17:27:45.821Z,59.90
2023-02-05T17:28:43.961Z,96.60
2023-02-05T17:29:43.977Z,84.10
2023-02-05T17:30:43.937Z,67.50
2023-02-05T17:31:45.087Z,55.40
2023-02-05T17:32:45.608Z,55.60
2023-02-05T17:33:45.000Z,61.20
2023-02-05T17:34:44.036Z,65.40
2023-02-05T17:35:43.995Z,63.90
2023-02-05T17:36:44.868Z,71.80
2023-02-05T17:37:44.132Z,56.00
2023-02-05T17:38:44.905Z,58.20
2023-02-05T17:39:44.068Z,55.80
2023-02-05T17:40:44.066Z,50.80
2023-02-05T17:41:44.110Z,55.30
2023-02-05T17:42:46.078Z,52.30
2023-02-05T17:43:45.995Z,51.00
2023-02-05T17:44:44.255Z,52.30
2023-02-05T17:45:43.880Z,53.10
2023-02-05T17:46:44.029Z,51.60
2023-02-05T17:47:44.039Z,53.20
2023-02-05T17:48:44.121Z,53.00
2023-02-05T17:49:44.105Z,53.30
2023-02-05T17:50:43.973Z,53.20
2023-02-05T17:51:43.892Z,51.40
2023-02-05T17:52:44.029Z,53.50
2023-02-05T17:53:43.928Z,62.00
2023-02-05T17:54:44.516Z,56.90
2023-02-05T17:55:45.619Z,58.60
2023-02-05T17:56:44.110Z,55.10
2023-02-05T17:57:44.438Z,53.10
2023-02-05T17:58:43.749Z,60.10
2023-02-05T17:59:43.759Z,55.20
2023-02-05T18:00:44.003Z,62.40
2023-02-05T18:01:45.525Z,58.30
2023-02-05T18:02:43.897Z,53.50
2023-02-05T18:03:44.438Z,52.70
2023-02-05T18:04:44.208Z,52.00
2023-02-05T18:05:43.716Z,53.90
2023-02-05T18:06:43.854Z,54.20
2023-02-05T18:07:44.504Z,61.10
2023-02-05T18:08:44.571Z,56.90
2023-02-05T18:09:44.495Z,56.60
2023-02-05T18:10:46.156Z,56.90
2023-02-05T18:11:43.985Z,53.50
2023-02-05T18:12:43.789Z,55.30
2023-02-05T18:13:44.958Z,53.30
2023-02-05T18:14:44.960Z,56.80
2023-02-05T18:15:44.048Z,49.70
2023-02-05T18:16:43.992Z,50.70
2023-02-05T18:17:43.907Z,51.50
2023-02-05T18:18:43.867Z,54.10
2023-02-05T18:19:43.671Z,53.60
2023-02-05T18:20:44.192Z,57.80
2023-02-05T18:21:45.162Z,55.20
2023-02-05T18:22:44.613Z,57.80
2023-02-05T18:23:43.778Z,59.70
2023-02-05T18:24:43.903Z,63.50
2023-02-05T18:25:44.767Z,58.90
2023-02-05T18:26:43.772Z,59.40
2023-02-05T18:27:44.802Z,60.00
2023-02-05T18:28:44.248Z,55.80
2023-02-05T18:29:43.935Z,57.00
2023-02-05T18:30:45.325Z,57.50
2023-02-05T18:31:44.579Z,55.90
2023-02-05T18:32:43.698Z,59.40
2023-02-05T18:33:43.962Z,55.80
2023-02-05T18:34:44.454Z,69.80
2023-02-05T18:35:45.450Z,61.80
2023-02-05T18:36:44.581Z,63.00
2023-02-05T18:37:46.702Z,55.60
2023-02-05T18:38:45.546Z,59.90
2023-02-05T18:39:43.894Z,67.00
2023-02-05T18:40:43.705Z,66.40
2023-02-05T18:41:46.152Z,60.50
2023-02-05T18:42:44.837Z,56.30
2023-02-05T18:43:45.022Z,54.90
2023-02-05T18:44:45.181Z,61.60
2023-02-05T18:45:46.312Z,54.70
2023-02-05T18:46:43.613Z,47.90
2023-02-05T18:47:45.793Z,55.20
2023-02-05T18:48:45.451Z,58.00
2023-02-05T18:49:45.453Z,57.90
2023-02-05T18:50:45.512Z,57.50
2023-02-05T18:51:43.472Z,56.30
2023-02-05T18:52:44.521Z,51.90
2023-02-05T18:53:44.149Z,58.70
2023-02-05T18:54:45.122Z,52.90
2023-02-05T18:55:44.452Z,56.40
2023-02-05T18:56:44.808Z,52.80
2023-02-05T18:57:43.273Z,55.10
2023-02-05T18:58:43.325Z,53.10
2023-02-05T18:59:43.347Z,53.70
2023-02-05T19:00:43.322Z,53.80
2023-02-05T19:01:43.270Z,51.00
2023-02-05T19:02:43.241Z,54.90
2023-02-05T19:03:43.297Z,50.90
2023-02-05T19:04:43.275Z,52.30
2023-02-05T19:05:43.313Z,49.90
2023-02-05T19:06:43.221Z,62.50
2023-02-05T19:07:43.212Z,56.90
2023-02-05T19:08:43.224Z,68.50
2023-02-05T19:09:43.231Z,58.30
2023-02-05T19:10:43.213Z,57.00
2023-02-05T19:11:43.242Z,60.20
2023-02-05T19:12:43.180Z,63.50
2023-02-05T19:13:43.192Z,60.80
2023-02-05T19:14:43.328Z,60.60
2023-02-05T19:15:43.291Z,60.00
2023-02-05T19:16:43.201Z,63.90
2023-02-05T19:17:43.256Z,62.00
2023-02-05T19:18:43.352Z,63.50
2023-02-05T19:19:43.176Z,65.70
2023-02-05T19:20:45.671Z,59.20
2023-02-05T19:21:43.140Z,58.30
2023-02-05T19:22:43.115Z,54.90
2023-02-05T19:23:43.311Z,68.90
2023-02-05T19:24:43.140Z,70.30
2023-02-05T19:25:43.093Z,72.90
2023-02-05T19:26:43.136Z,58.10
2023-02-05T19:27:43.101Z,49.70
2023-02-05T19:28:43.100Z,54.80
2023-02-05T19:29:43.086Z,52.50
2023-02-05T19:30:43.142Z,49.30
2023-02-05T19:31:43.117Z,52.50
2023-02-05T19:32:43.077Z,58.20
2023-02-05T19:33:43.068Z,57.40
2023-02-05T19:34:43.055Z,51.30
2023-02-05T19:35:43.193Z,63.30
2023-02-05T19:36:43.065Z,55.30
2023-02-05T19:37:43.027Z,60.40
2023-02-05T19:38:43.078Z,55.30
2023-02-05T19:39:43.030Z,54.80
2023-02-05T19:40:43.008Z,56.10
2023-02-05T19:41:43.639Z,53.80
2023-02-05T19:42:43.002Z,50.00
2023-02-05T19:43:43.005Z,53.80
2023-02-05T19:44:43.150Z,55.90
2023-02-05T19:45:42.988Z,61.40
2023-02-05T19:46:42.969Z,61.20
2023-02-05T19:47:43.070Z,54.40
2023-02-05T19:48:42.958Z,50.40
2023-02-05T19:49:43.036Z,55.90
2023-02-05T19:50:47.136Z,48.80
2023-02-05T19:51:42.948Z,52.30
2023-02-05T19:52:43.045Z,51.20
2023-02-05T19:53:42.986Z,53.30
2023-02-05T19:54:43.087Z,54.20
2023-02-05T19:55:42.909Z,65.90
2023-02-05T19:56:42.904Z,56.70
2023-02-05T19:57:42.996Z,50.10
2023-02-05T19:58:42.894Z,51.30
2023-02-05T19:59:42.902Z,50.70
2023-02-05T20:00:42.927Z,48.20
2023-02-05T20:01:43.002Z,51.20
2023-02-05T20:02:42.876Z,50.50
2023-02-05T20:03:42.868Z,54.30
2023-02-05T20:04:42.931Z,53.70
2023-02-05T20:05:42.870Z,55.70
2023-02-05T20:06:42.882Z,57.10
2023-02-05T20:07:43.084Z,50.50
2023-02-05T20:08:42.836Z,62.30
2023-02-05T20:09:43.790Z,53.40
2023-02-05T20:10:43.779Z,58.50
2023-02-05T20:11:43.023Z,55.20
2023-02-05T20:12:42.836Z,54.80
2023-02-05T20:13:42.941Z,51.70
2023-02-05T20:14:42.807Z,53.70
2023-02-05T20:15:42.857Z,56.40
2023-02-05T20:16:43.230Z,59.60
2023-02-05T20:17:42.790Z,59.60
2023-02-05T20:18:42.855Z,57.60
2023-02-05T20:19:42.820Z,47.20
2023-02-05T20:20:42.807Z,54.70
2023-02-05T20:21:42.762Z,56.40
2023-02-05T20:22:42.845Z,58.00
2023-02-05T20:23:42.749Z,49.70
2023-02-05T20:24:42.766Z,50.40
2023-02-05T20:25:42.839Z,51.60
2023-02-05T20:26:42.743Z,47.50
2023-02-05T20:27:42.746Z,49.30
2023-02-05T20:28:42.964Z,48.00
2023-02-05T20:29:42.709Z,54.60
2023-02-05T20:30:42.778Z,56.40
2023-02-05T20:31:42.850Z,48.10
2023-02-05T20:32:43.341Z,58.80
2023-02-05T20:33:42.817Z,55.00
2023-02-05T20:34:42.670Z,57.40
2023-02-05T20:35:42.888Z,59.60
2023-02-05T20:36:42.710Z,63.80
2023-02-05T20:37:42.709Z,54.70
2023-02-05T20:38:42.677Z,55.00
2023-02-05T20:39:42.656Z,64.20
2023-02-05T20:40:42.635Z,64.70
2023-02-05T20:41:42.755Z,50.90
2023-02-05T20:42:42.650Z,51.30
2023-02-05T20:43:42.643Z,56.80
2023-02-05T20:44:43.330Z,61.10
2023-02-05T20:45:42.606Z,58.60
2023-02-05T20:46:42.667Z,66.70
2023-02-05T20:47:42.754Z,60.70
2023-02-05T20:48:42.633Z,54.30
2023-02-05T20:49:42.620Z,57.40
2023-02-05T20:50:42.604Z,54.30
2023-02-05T20:51:42.604Z,51.80
2023-02-05T20:52:42.615Z,51.70
2023-02-05T20:53:43.283Z,50.60
2023-02-05T20:54:42.562Z,52.00
2023-02-05T20:55:42.599Z,50.30
2023-02-05T20:56:42.613Z,53.30
2023-02-05T20:57:42.708Z,54.90
2023-02-05T20:58:42.602Z,52.70
2023-02-05T20:59:42.524Z,52.50
2023-02-05T21:00:42.581Z,50.30
2023-02-05T21:01:42.719Z,50.70
2023-02-05T21:02:42.686Z,57.60
2023-02-05T21:03:42.511Z,60.60
2023-02-05T21:04:42.522Z,61.70
2023-02-05T21:05:42.558Z,63.10
2023-02-05T21:06:42.493Z,62.30
2023-02-05T21:07:42.490Z,60.70
2023-02-05T21:08:42.555Z,58.70
2023-02-05T21:09:42.486Z,57.20
2023-02-05T21:10:42.541Z,79.30
2023-02-05T21:11:42.505Z,55.60
2023-02-05T21:12:42.469Z,55.60
2023-02-05T21:13:42.523Z,57.70
2023-02-05T21:14:42.465Z,84.40
2023-02-05T21:15:42.432Z,58.30
2023-02-05T21:16:42.436Z,53.40
2023-02-05T21:17:42.443Z,63.90
2023-02-05T21:18:42.416Z,65.20
2023-02-05T21:19:42.525Z,58.00
2023-02-05T21:20:42.428Z,52.00
2023-02-05T21:21:42.470Z,54.80
2023-02-05T21:22:42.417Z,58.30
2023-02-05T21:23:42.469Z,51.90
2023-02-05T21:24:43.328Z,65.00
2023-02-05T21:25:42.391Z,71.40
2023-02-05T21:26:42.411Z,88.40
2023-02-05T21:27:42.445Z,156.90
2023-02-05T21:28:42.373Z,104.10
2023-02-05T21:29:42.352Z,74.00
2023-02-05T21:30:42.358Z,116.50
2023-02-05T21:31:42.408Z,97.90
2023-02-05T21:32:42.489Z,81.30
2023-02-05T21:33:42.342Z,81.90
2023-02-05T21:34:42.316Z,82.60
2023-02-05T21:35:42.338Z,67.00
2023-02-05T21:36:42.373Z,94.90
2023-02-05T21:37:42.286Z,95.00
2023-02-05T21:38:42.378Z,68.60
2023-02-05T21:39:42.323Z,59.50
2023-02-05T21:40:42.337Z,61.00
2023-02-05T21:41:42.337Z,56.70
2023-02-05T21:42:42.305Z,52.70
2023-02-05T21:43:42.362Z,55.60
2023-02-05T21:44:42.295Z,50.90
2023-02-05T21:45:42.320Z,48.70
2023-02-05T21:46:42.356Z,49.40
2023-02-05T21:47:43.280Z,50.10
2023-02-05T21:48:42.262Z,53.40
2023-02-05T21:49:42.290Z,53.20
2023-02-05T21:50:42.345Z,50.50
2023-02-05T21:51:42.298Z,51.40
2023-02-05T21:52:42.238Z,49.30
2023-02-05T21:53:42.359Z,51.20
2023-02-05T21:54:42.255Z,62.90
2023-02-05T21:55:42.236Z,104.20
2023-02-05T21:56:42.244Z,80.80
2023-02-05T21:57:42.451Z,70.30
2023-02-05T21:58:42.216Z,59.80
2023-02-05T21:59:42.217Z,61.80
2023-02-05T22:00:42.243Z,54.90
2023-02-05T22:01:42.170Z,53.50
2023-02-05T22:02:42.186Z,62.50
2023-02-05T22:03:42.259Z,58.30
2023-02-05T22:04:42.228Z,55.80
2023-02-05T22:05:42.167Z,62.00
2023-02-05T22:06:42.165Z,57.70
2023-02-05T22:07:42.306Z,64.60
2023-02-05T22:08:42.135Z,62.60
2023-02-05T22:09:42.118Z,71.50
2023-02-05T22:10:42.373Z,65.30
2023-02-05T22:11:43.161Z,61.30
2023-02-05T22:12:42.164Z,59.90
2023-02-05T22:13:42.206Z,58.60
2023-02-05T22:14:42.131Z,55.70
2023-02-05T22:15:42.193Z,56.50
2023-02-05T22:16:42.159Z,51.00
2023-02-05T22:17:42.125Z,54.00
2023-02-05T22:18:42.079Z,55.50
2023-02-05T22:19:42.122Z,52.40
2023-02-05T22:20:42.068Z,60.00
2023-02-05T22:21:42.091Z,59.80
2023-02-05T22:22:42.079Z,62.40
2023-02-05T22:23:42.072Z,51.80
2023-02-05T22:24:42.042Z,55.90
2023-02-05T22:25:42.088Z,59.30
2023-02-05T22:26:42.080Z,56.90
2023-02-05T22:27:42.022Z,48.80
2023-02-05T22:28:42.080Z,57.70
2023-02-05T22:29:42.225Z,57.30
2023-02-05T22:30:42.012Z,51.70
2023-02-05T22:31:42.221Z,57.20
2023-02-05T22:32:42.000Z,55.90
2023-02-05T22:33:41.995Z,55.80
2023-02-05T22:34:43.549Z,57.70
2023-02-05T22:35:42.952Z,63.00
2023-02-05T22:36:41.992Z,56.20
2023-02-05T22:37:41.952Z,45.60
2023-02-05T22:38:41.967Z,47.90
2023-02-05T22:39:41.989Z,53.60
2023-02-05T22:40:41.981Z,62.20
2023-02-05T22:41:41.954Z,57.30
2023-02-05T22:42:41.915Z,65.10
2023-02-05T22:43:41.919Z,52.60
2023-02-05T22:44:41.909Z,58.10
2023-02-05T22:45:42.025Z,60.50
2023-02-05T22:46:41.936Z,68.10
2023-02-05T22:47:41.906Z,57.80
2023-02-05T22:48:41.880Z,57.60
2023-02-05T22:49:41.876Z,55.70
2023-02-05T22:50:41.900Z,57.50
2023-02-05T22:51:41.869Z,59.60
2023-02-05T22:52:41.904Z,55.50
2023-02-05T22:53:41.908Z,55.80
2023-02-05T22:54:41.878Z,60.80
2023-02-05T22:55:41.855Z,66.30
2023-02-05T22:56:41.847Z,66.70
2023-02-05T22:57:41.817Z,53.30
2023-02-05T22:58:41.879Z,57.30
2023-02-05T22:59:41.845Z,62.10
2023-02-05T23:00:41.826Z,58.50
2023-02-05T23:01:41.835Z,58.80
2023-02-05T23:02:41.807Z,53.30
2023-02-05T23:03:41.904Z,54.20
2023-02-05T23:04:41.849Z,61.40
2023-02-05T23:05:41.789Z,67.30
2023-02-05T23:06:41.887Z,66.50
2023-02-05T23:07:41.799Z,54.60
2023-02-05T23:08:41.807Z,52.20
2023-02-05T23:09:41.767Z,53.60
2023-02-05T23:10:41.784Z,55.80
2023-02-05T23:11:41.784Z,56.50
2023-02-05T23:12:41.874Z,65.50
2023-02-05T23:13:41.741Z,58.30
2023-02-05T23:14:41.780Z,58.30
2023-02-05T23:15:41.727Z,67.90
2023-02-05T23:16:41.794Z,64.50
2023-02-05T23:17:41.804Z,61.60
2023-02-05T23:18:41.715Z,67.90
2023-02-05T23:19:42.055Z,66.50
2023-02-05T23:20:41.733Z,64.80
2023-02-05T23:21:41.683Z,61.20
2023-02-05T23:22:41.764Z,63.70
2023-02-05T23:23:41.684Z,67.90
2023-02-05T23:24:41.715Z,56.30
2023-02-05T23:25:41.682Z,59.80
2023-02-05T23:26:41.658Z,54.90
2023-02-05T23:27:41.669Z,69.80
2023-02-05T23:28:41.665Z,58.20
2023-02-05T23:29:41.646Z,67.80
2023-02-05T23:30:41.688Z,64.50
2023-02-05T23:31:41.661Z,70.10
2023-02-05T23:32:41.648Z,66.00
2023-02-05T23:33:41.638Z,67.60
2023-02-05T23:34:41.707Z,62.80
2023-02-05T23:35:41.630Z,67.20
2023-02-05T23:36:41.579Z,60.20
2023-02-05T23:37:41.649Z,66.70
2023-02-05T23:38:41.618Z,72.30
2023-02-05T23:39:41.658Z,67.00
2023-02-05T23:40:41.574Z,45.10
2023-02-05T23:41:41.571Z,48.30
2023-02-05T23:42:41.581Z,48.90
2023-02-05T23:43:41.636Z,45.70
2023-02-05T23:44:41.599Z,50.90
2023-02-05T23:45:41.702Z,48.60
2023-02-05T23:46:41.585Z,49.90
2023-02-05T23:47:41.636Z,61.00
2023-02-05T23:48:41.525Z,55.80
2023-02-05T23:49:41.526Z,53.90
2023-02-05T23:50:41.548Z,55.70
2023-02-05T23:51:41.597Z,55.20
2023-02-05T23:52:41.519Z,60.80
2023-02-05T23:53:41.536Z,64.50
2023-02-05T23:54:42.289Z,58.80